Airfield :
LOGIN :

Register | Disclaimer

   EN    FR    IT 

 










Legend :    VFR   Marginal VFR   IFR   Intensive IFR   Very Intensive IFR
Visi :
Ceiling :
>= 8 km
>= 3000ft
5 to 8 km
1000 to 3000 ft
1500m to 5 km
500 to 1000 ft
800 to 1500m
200 to 500 ft
< 800m
< 200 ft
Symbols :   Thunderstorms  Fog  Heavy snow  Heavy precipitations  Wind > 20 kt
SIGMETs :     Misc.  Thunderstorms  Icing  Turbulence  Mountain Waves  Volcanic Ashes







- Airport Elevation : 117 ft
- IATA code : NWI
- Download approach charts


EGSH - Norwich

CURRENT METAR :
  • 201020Z 30007KT 270V340 6000 NSC 19/13 Q1023 NOSIG

EXPIRED METARs :
  • 200950Z 28009KT 6000 NSC 18/12 Q1023 NOSIG
  • 200920Z 28007KT 250V320 6000 NSC 17/12 Q1022
  • 200850Z 29008KT 8000 NSC 16/11 Q1022 NOSIG
  • 200820Z 29004KT 250V330 8000 NSC 16/12 Q1022 NOSIG
  • 200750Z 28007KT 7000 NSC 16/11 Q1022 NOSIG

TAF AMD TAF EGSH
Valid from the 20 at 09:00 until the 20 at 18:00 UTC


200929Z 2009/2018 24005KT 6000 FEW045
BECMG 2010/2013 33010KT 9999
ATIS : +44 1603 420 640
No reported NOTAMs for that airfield.



MET'MAP, your aeronautical weather chart ! - Copyright ORBIFLY December 2007 - Disclaimer

ORBIFLY MET'MAP TEAM :

Programming & Development : Alexandra Zaïnal
Concept & Development : Baudouin d'Aumeries
Co-Development & Prog : Marc-Olivier Méhu
Technical & hardware support : Manuel Goepfert

Contact : metmap@orbifly.com




SOURCES & CREDITS :

   NOAA